Potlatch, ID (83855)

10:22 AM PDT on July 01, 2015 (GMT -0700)
2 Miles S E | | Change Station
CLOSE
Current Station
Personal Weather Station
Location: Princeton, ID
Elevation: 3027 ft
Nearby Weather Stations

Elev 3027 ft 46.90 °N, 116.80 °W | Updated 4 minutes ago

Clear
Clear
77.6 °F
Feels Like 79 °F
N
1.8
Wind Variable Wind from North
Gusts 4.7 mph

Today
High -- | Low -- °F
--% Chance of Precip.
Yesterday
High -- | Low -- °F
Precip. -- in
4:56 AM 8:45 PM
Full, 100% visible
Pressure 30.01 in
Visibility 10.0 miles
Clouds Clear
Heat Index 79 °F
Dew Point 53 °F
Humidity 43%
Rainfall 0.00 in
Snow Depth Not available.
UV 7 out of 12
Pollen 6.60 out of 12
Air Quality Not available.
Flu Activity Not available.
METAR KPUW 011653Z AUTO 27007KT 10SM CLR 27/10 A3006 RMK AO2 SLP161 T02720100

More Conditions Fewer Conditions

Pressure 30.01 in
Visibility 10.0 miles
Clouds Clear
Heat Index 79 °F
Dew Point 53 °F
Humidity 43%
Rainfall 0.00 in
Snow Depth Not available.
UV 7 out of 12
Pollen 6.60 out of 12
Air Quality Not available.
Flu Activity Not available.
METAR KPUW 011653Z AUTO 27007KT 10SM CLR 27/10 A3006 RMK AO2 SLP161 T02720100

More Conditions Fewer Conditions

10-Day Weather Forecast

×

Almanac

Astronomy

Jul. 01, 2015 Rise Set
Actual Time
Civil Twilight
Nautical Twilight
Astronomical Twilight
Moon
Length of Visible Light
Length of Day
Tomorrow will be .
, % of the Moon is Illuminated

Today's Extremes

State Highs State Lows

Community

WunderPhotos

Upload Photos

1,834,216 photos uploaded!

WunderBlogs® & News

Nearby

Air Quality

  Air Quality AQ Index Pollutant
Not available.

Snow Depth

Station Depth Elevation

Earthquake Activity

City Distance Mag. Time & Date
Minimum magnitude displayed is 2.5.

Coastal Water Temperatures

Place Temperature

Stations

Nearby Weather Stations

Station Location Temp. Windchill Dew Point Humidity Wind Precip. Elev Updated Type